Time;durP1;ratioP1;P1;durP2;ratioP2;P2;SDS_P1;SDS_P2;PMS_P1;PMS_P2;Temp;Humidity;BMP_temperature;BMP_pressure;BME280_temperature;BME280_humidity;BME280_pressure;Samples;Min_cycle;Max_cycle;Signal;HPM_P1;HPM_P2
2024/02/20 00:00:38;;;;;;;0.30;0.30;;;;;;;5.96;100.00;100378.97;5025500;28;20511;-58
2024/02/20 00:03:06;;;;;;;0.38;0.38;;;;;;;6.07;100.00;100380.38;5034582;28;20739;-59
2024/02/20 00:05:33;;;;;;;0.50;0.50;;;;;;;6.05;100.00;100382.38;5025238;28;20057;-58
2024/02/20 00:08:02;;;;;;;0.50;0.50;;;;;;;6.07;100.00;100380.38;5033133;28;20958;-58
2024/02/20 00:10:30;;;;;;;0.35;0.35;;;;;;;6.15;100.00;100369.59;5034639;28;20685;-58
2024/02/20 00:12:57;;;;;;;0.35;0.35;;;;;;;6.11;100.00;100367.50;5033739;28;20052;-58
2024/02/20 00:15:25;;;;;;;0.30;0.30;;;;;;;6.15;100.00;100366.94;5034819;28;20123;-57
2024/02/20 00:17:53;;;;;;;0.38;0.38;;;;;;;6.12;100.00;100371.81;5037056;28;20041;-58
2024/02/20 00:20:20;;;;;;;0.30;0.30;;;;;;;6.16;100.00;100373.91;5033340;28;20041;-57
2024/02/20 00:22:47;;;;;;;0.40;0.40;;;;;;;6.14;100.00;100367.97;5035411;28;20145;-58
2024/02/20 00:25:14;;;;;;;0.40;0.40;;;;;;;6.13;100.00;100368.97;5036441;28;20472;-57
2024/02/20 00:27:41;;;;;;;0.50;0.50;;;;;;;6.18;100.00;100377.22;5028647;28;20053;-58
2024/02/20 00:30:10;;;;;;;0.30;0.30;;;;;;;6.26;100.00;100371.81;5036557;28;20123;-57
2024/02/20 00:32:37;;;;;;;0.40;0.40;;;;;;;6.25;100.00;100378.13;5032115;28;20065;-57
2024/02/20 00:35:07;;;;;;;0.40;0.40;;;;;;;6.26;100.00;100376.28;5031412;28;20045;-58
2024/02/20 00:37:34;;;;;;;0.40;0.40;;;;;;;6.31;100.00;100383.72;5033030;28;20495;-58
2024/02/20 00:40:03;;;;;;;0.47;0.47;;;;;;;6.35;100.00;100377.84;5030284;28;20877;-57
2024/02/20 00:42:30;;;;;;;0.30;0.30;;;;;;;6.36;100.00;100373.34;5035115;28;20052;-58
2024/02/20 00:45:01;;;;;;;0.30;0.30;;;;;;;6.40;100.00;100371.97;5030089;28;20491;-58
2024/02/20 00:47:28;;;;;;;0.40;0.40;;;;;;;6.33;100.00;100373.72;5032679;28;20053;-57
2024/02/20 00:49:55;;;;;;;0.40;0.40;;;;;;;6.40;100.00;100371.97;5036194;28;20480;-57
2024/02/20 00:52:24;;;;;;;0.40;0.40;;;;;;;6.38;100.00;100376.63;5031455;28;20045;-58
2024/02/20 00:54:52;;;;;;;0.40;0.40;;;;;;;6.40;100.00;100379.94;5035275;28;20073;-57
2024/02/20 00:57:19;;;;;;;0.40;0.40;;;;;;;6.35;100.00;100377.03;5031967;28;20049;-57
2024/02/20 00:59:46;;;;;;;0.38;0.38;;;;;;;6.20;100.00;100383.19;5032906;28;20447;-58
2024/02/20 01:02:14;;;;;;;0.50;0.50;;;;;;;6.18;100.00;100377.22;5039046;28;20049;-57
2024/02/20 01:04:41;;;;;;;0.40;0.40;;;;;;;6.28;100.00;100378.78;5028183;28;20045;-58
2024/02/20 01:07:08;;;;;;;0.30;0.30;;;;;;;6.33;100.00;100379.84;5026925;28;20079;-57
2024/02/20 01:09:36;;;;;;;0.40;0.40;;;;;;;6.38;100.00;100381.97;5028406;28;20046;-57
2024/02/20 01:12:05;;;;;;;0.40;0.40;;;;;;;6.31;100.00;100383.72;5033029;28;20051;-57
2024/02/20 01:14:32;;;;;;;0.40;0.40;;;;;;;6.25;100.00;100383.44;5028571;28;20160;-57
2024/02/20 01:16:59;;;;;;;0.38;0.38;;;;;;;6.28;100.00;100392.09;5037422;28;20037;-58
2024/02/20 01:19:26;;;;;;;0.50;0.50;;;;;;;6.33;100.00;100389.69;5025378;28;20069;-57
2024/02/20 01:21:54;;;;;;;0.40;0.40;;;;;;;6.34;100.00;100386.00;5030088;28;20045;-58
2024/02/20 01:24:22;;;;;;;0.40;0.40;;;;;;;6.34;100.00;100388.66;5033991;28;20049;-58
2024/02/20 01:26:50;;;;;;;0.38;0.38;;;;;;;6.28;100.00;100392.91;5040026;28;20045;-58
2024/02/20 01:29:21;;;;;;;0.30;0.30;;;;;;;6.28;100.00;100394.75;5037766;28;20065;-57
2024/02/20 01:31:48;;;;;;;0.40;0.40;;;;;;;6.16;100.00;100379.22;5028256;28;20132;-58
2024/02/20 01:34:15;;;;;;;0.40;0.40;;;;;;;6.18;100.00;100393.19;5029432;28;20133;-58
2024/02/20 01:36:43;;;;;;;0.30;0.30;;;;;;;6.14;100.00;100391.94;5032903;28;20041;-58
2024/02/20 01:39:10;;;;;;;0.45;0.45;;;;;;;6.03;100.00;100387.06;5032807;28;20064;-57
2024/02/20 01:41:37;;;;;;;0.40;0.40;;;;;;;6.02;100.00;100390.75;5029978;28;20107;-57
2024/02/20 01:44:05;;;;;;;0.40;0.40;;;;;;;5.98;100.00;100392.09;5032671;28;20404;-58
2024/02/20 01:46:32;;;;;;;0.40;0.40;;;;;;;5.83;100.00;100395.56;5029555;28;20053;-57
2024/02/20 01:48:59;;;;;;;0.40;0.40;;;;;;;5.83;100.00;100400.06;5033846;28;20179;-57
2024/02/20 01:51:26;;;;;;;0.50;0.50;;;;;;;5.84;100.00;100399.03;5029980;28;20069;-57
2024/02/20 01:53:53;;;;;;;0.40;0.40;;;;;;;5.83;100.00;100400.88;5034578;28;20052;-58
2024/02/20 01:56:20;;;;;;;0.38;0.38;;;;;;;5.81;100.00;100397.56;5028610;28;20045;-57
2024/02/20 01:58:47;;;;;;;0.30;0.30;;;;;;;5.80;100.00;100398.59;5035517;28;20057;-58
2024/02/20 02:01:16;;;;;;;0.40;0.40;;;;;;;5.83;100.00;100398.22;5035665;28;20060;-58
2024/02/20 02:03:43;;;;;;;0.40;0.40;;;;;;;5.77;100.00;100406.13;5037135;28;20602;-57
2024/02/20 02:06:10;;;;;;;0.40;0.40;;;;;;;5.76;100.00;100399.94;5033701;28;20132;-58
2024/02/20 02:08:37;;;;;;;0.30;0.30;;;;;;;5.83;100.00;100408.03;5034291;28;20119;-57
2024/02/20 02:11:05;;;;;;;0.43;0.43;;;;;;;5.86;100.00;100398.84;5033729;28;20136;-57
2024/02/20 02:13:32;;;;;;;0.35;0.35;;;;;;;5.87;100.00;100408.50;5036295;28;20106;-57
2024/02/20 02:15:59;;;;;;;0.45;0.45;;;;;;;5.79;100.00;100404.94;5042080;28;20148;-58
2024/02/20 02:18:27;;;;;;;0.30;0.30;;;;;;;5.87;100.00;100405.84;5033304;28;20061;-58
2024/02/20 02:20:54;;;;;;;0.40;0.40;;;;;;;5.83;100.00;100410.69;5035842;28;20076;-58
2024/02/20 02:23:21;;;;;;;0.30;0.30;;;;;;;5.89;100.00;100409.97;5035770;28;20048;-57
2024/02/20 02:25:48;;;;;;;0.40;0.40;;;;;;;5.87;100.00;100405.84;5035214;28;20107;-58
2024/02/20 02:28:17;;;;;;;0.30;0.30;;;;;;;5.85;100.00;100411.34;5038723;28;20087;-58
2024/02/20 02:30:45;;;;;;;0.40;0.40;;;;;;;5.77;100.00;100417.56;5026763;28;20063;-58
2024/02/20 02:33:12;;;;;;;0.30;0.30;;;;;;;5.91;100.00;100418.59;5033660;28;20049;-57
2024/02/20 02:35:39;;;;;;;0.50;0.50;;;;;;;5.81;100.00;100418.84;5037533;28;20048;-57
2024/02/20 02:38:06;;;;;;;0.28;0.28;;;;;;;5.74;100.00;100420.59;5037615;28;20057;-58
2024/02/20 02:40:33;;;;;;;0.43;0.43;;;;;;;5.70;100.00;100419.31;5029672;28;20049;-57
2024/02/20 02:43:00;;;;;;;0.50;0.50;;;;;;;5.68;100.00;100426.63;5033939;28;20534;-58
2024/02/20 02:45:31;;;;;;;0.32;0.32;;;;;;;5.70;100.00;100427.28;5034427;28;20132;-58
2024/02/20 02:47:58;;;;;;;0.43;0.43;;;;;;;5.63;100.00;100431.69;5037017;28;20053;-57
2024/02/20 02:50:25;;;;;;;0.40;0.40;;;;;;;5.59;100.00;100431.22;5032084;28;20073;-57
2024/02/20 02:52:52;;;;;;;0.32;0.32;;;;;;;5.54;100.00;100428.28;5030365;28;20415;-57
2024/02/20 02:55:25;;;;;;;0.40;0.40;;;;;;;5.50;100.00;100434.94;5030606;28;20060;-58
2024/02/20 02:57:52;;;;;;;0.30;0.30;;;;;;;5.41;100.00;100431.53;5034283;28;20140;-57
2024/02/20 03:00:19;;;;;;;0.40;0.40;;;;;;;5.38;100.00;100431.88;5028955;28;20038;-57
2024/02/20 03:02:48;;;;;;;0.45;0.45;;;;;;;5.37;100.00;100438.22;5034121;28;20077;-58
2024/02/20 03:05:16;;;;;;;0.40;0.40;;;;;;;5.32;100.00;100437.94;5037940;28;20074;-58
2024/02/20 03:07:44;;;;;;;0.43;0.43;;;;;;;5.26;100.00;100435.97;5034328;28;20069;-56
2024/02/20 03:10:12;;;;;;;0.40;0.40;;;;;;;5.25;100.00;100441.47;5038030;28;20071;-57
2024/02/20 03:12:40;;;;;;;0.40;0.40;;;;;;;5.21;100.00;100441.00;5035903;28;20128;-58
2024/02/20 03:15:09;;;;;;;0.40;0.40;;;;;;;5.05;100.00;100443.78;5038665;28;20473;-57
2024/02/20 03:17:36;;;;;;;0.50;0.50;;;;;;;5.01;100.00;100447.78;5034313;28;20049;-57
2024/02/20 03:20:14;;;;;;;0.50;0.50;;;;;;;4.96;100.00;100449.13;5035199;28;20052;-57
2024/02/20 03:22:41;;;;;;;0.40;0.40;;;;;;;4.94;100.00;100445.00;5039647;28;20044;-57
2024/02/20 03:25:09;;;;;;;0.40;0.40;;;;;;;4.94;100.00;100448.50;5040442;28;20090;-58
2024/02/20 03:27:36;;;;;;;0.40;0.40;;;;;;;4.91;100.00;100450.69;5035845;28;20075;-57
2024/02/20 03:30:05;;;;;;;0.55;0.55;;;;;;;4.87;100.00;100449.38;5028127;28;20053;-55
2024/02/20 03:32:32;;;;;;;0.50;0.50;;;;;;;4.80;100.00;100449.25;5033331;28;20049;-57
2024/02/20 03:34:59;;;;;;;0.40;0.40;;;;;;;4.79;100.00;100450.22;5030711;28;20427;-57
2024/02/20 03:37:28;;;;;;;0.50;0.50;;;;;;;4.80;100.00;100456.41;5032473;28;20136;-57
2024/02/20 03:39:55;;;;;;;0.43;0.43;;;;;;;4.78;100.00;100453.91;5032979;28;20042;-58
2024/02/20 03:42:22;;;;;;;0.40;0.40;;;;;;;4.73;100.00;100450.94;5040296;28;20075;-57
2024/02/20 03:44:49;;;;;;;0.40;0.40;;;;;;;4.72;100.00;100454.63;5030522;28;20044;-57
2024/02/20 03:47:16;;;;;;;0.40;0.40;;;;;;;4.76;100.00;100455.91;5040252;28;20120;-58
2024/02/20 03:49:43;;;;;;;0.50;0.50;;;;;;;4.67;100.00;100456.97;5040520;28;20551;-57
2024/02/20 03:52:10;;;;;;;0.40;0.40;;;;;;;4.60;100.00;100461.31;5027779;28;20040;-58
2024/02/20 03:54:39;;;;;;;0.50;0.50;;;;;;;4.60;100.00;100458.66;5038538;28;20036;-58
2024/02/20 03:57:06;;;;;;;0.40;0.40;;;;;;;4.47;100.00;100465.34;5038033;28;20041;-58
2024/02/20 03:59:33;;;;;;;0.50;0.50;;;;;;;4.42;100.00;100461.53;5029705;28;20136;-58
2024/02/20 04:02:01;;;;;;;0.40;0.40;;;;;;;4.48;100.00;100468.81;5035175;28;20133;-58
2024/02/20 04:04:29;;;;;;;0.52;0.52;;;;;;;4.53;100.00;100464.66;5034450;28;20044;-58
2024/02/20 04:06:56;;;;;;;0.47;0.47;;;;;;;4.42;100.00;100467.69;5029151;28;20134;-58
2024/02/20 04:09:23;;;;;;;0.38;0.38;;;;;;;4.45;100.00;100475.31;5028995;28;20033;-58
2024/02/20 04:11:51;;;;;;;0.50;0.50;;;;;;;4.43;100.00;100482.63;5029729;28;20052;-61
2024/02/20 04:14:18;;;;;;;0.50;0.50;;;;;;;4.16;100.00;100480.38;5031467;28;20122;-57
2024/02/20 04:16:45;;;;;;;0.50;0.50;;;;;;;4.20;100.00;100487.00;5034173;28;20065;-57
2024/02/20 04:19:12;;;;;;;0.50;0.50;;;;;;;4.16;100.00;100483.84;5029020;28;20624;-58
2024/02/20 04:21:39;;;;;;;0.47;0.47;;;;;;;4.13;100.00;100480.72;5033721;28;20075;-58
2024/02/20 04:24:07;;;;;;;0.50;0.50;;;;;;;4.14;100.00;100487.69;5036309;28;20045;-57
2024/02/20 04:26:34;;;;;;;0.50;0.50;;;;;;;4.23;100.00;100502.59;5034789;28;20056;-58
2024/02/20 04:29:03;;;;;;;0.50;0.50;;;;;;;4.18;100.00;100489.00;5037534;28;20828;-58
2024/02/20 04:31:31;;;;;;;0.50;0.50;;;;;;;4.09;100.00;100497.00;5031756;28;20041;-58
2024/02/20 04:33:58;;;;;;;0.50;0.50;;;;;;;4.24;100.00;100499.78;5030880;28;20045;-57
2024/02/20 04:36:25;;;;;;;0.50;0.50;;;;;;;4.30;100.00;100492.94;5037332;28;20516;-57
2024/02/20 04:38:56;;;;;;;0.60;0.60;;;;;;;4.37;100.00;100496.59;5029803;28;20053;-58
2024/02/20 04:41:24;;;;;;;0.50;0.50;;;;;;;4.34;100.00;100499.56;5033460;28;20087;-58
2024/02/20 04:43:51;;;;;;;0.50;0.50;;;;;;;4.43;100.00;100508.34;5031307;28;20053;-58
2024/02/20 04:46:20;;;;;;;0.40;0.40;;;;;;;4.52;100.00;100505.50;5034840;28;20133;-58
2024/02/20 04:48:47;;;;;;;0.50;0.50;;;;;;;4.51;100.00;100506.47;5030188;28;20057;-58
2024/02/20 04:51:14;;;;;;;0.40;0.40;;;;;;;4.42;100.00;100501.34;5027397;28;20120;-58
2024/02/20 04:53:41;;;;;;;0.50;0.50;;;;;;;4.40;100.00;100508.69;5031346;28;20048;-58
2024/02/20 04:56:08;;;;;;;0.50;0.50;;;;;;;4.57;100.00;100507.63;5034991;28;21072;-58
2024/02/20 04:58:35;;;;;;;0.50;0.50;;;;;;;4.53;100.00;100509.78;5033387;28;20053;-58
2024/02/20 05:01:02;;;;;;;0.57;0.57;;;;;;;4.43;100.00;100506.50;5031715;28;20064;-58
2024/02/20 05:03:31;;;;;;;0.40;0.40;;;;;;;4.54;100.00;100506.16;5031353;28;20536;-57
2024/02/20 05:05:58;;;;;;;0.50;0.50;;;;;;;4.64;100.00;100510.41;5034405;28;20663;-58
2024/02/20 05:08:25;;;;;;;0.50;0.50;;;;;;;4.53;100.00;100515.09;5027310;28;20962;-58
2024/02/20 05:10:52;;;;;;;0.50;0.50;;;;;;;4.50;100.00;100506.66;5024967;28;20144;-58
2024/02/20 05:13:19;;;;;;;0.40;0.40;;;;;;;4.20;100.00;100508.25;5033883;28;20040;-58
2024/02/20 05:15:46;;;;;;;0.50;0.50;;;;;;;4.14;100.00;100511.56;5036266;28;20041;-58
2024/02/20 05:18:13;;;;;;;0.50;0.50;;;;;;;4.06;100.00;100507.09;5028448;28;20124;-56
2024/02/20 05:20:42;;;;;;;0.52;0.52;;;;;;;4.10;100.00;100497.81;5032814;28;20045;-58
2024/02/20 05:23:09;;;;;;;0.40;0.40;;;;;;;4.06;100.00;100504.44;5029094;28;20059;-57
2024/02/20 05:25:36;;;;;;;0.63;0.63;;;;;;;4.28;100.00;100497.59;5031141;28;20135;-58
2024/02/20 05:28:03;;;;;;;0.40;0.40;;;;;;;4.31;100.00;100499.91;5028001;28;20033;-57
2024/02/20 05:30:30;;;;;;;0.50;0.50;;;;;;;4.33;100.00;100503.22;5030987;28;20601;-59
2024/02/20 05:32:57;;;;;;;0.50;0.50;;;;;;;4.29;100.00;100499.25;5038015;28;20079;-58
2024/02/20 05:35:24;;;;;;;0.60;0.60;;;;;;;4.25;100.00;100501.41;5029670;28;20135;-56
2024/02/20 05:37:53;;;;;;;0.50;0.50;;;;;;;4.30;100.00;100506.22;5038007;28;20053;-58
2024/02/20 05:40:20;;;;;;;0.60;0.60;;;;;;;4.21;100.00;100496.63;5033742;28;20048;-58
2024/02/20 05:42:47;;;;;;;0.50;0.50;;;;;;;4.23;100.00;100495.44;5032947;28;20053;-58
2024/02/20 05:45:16;;;;;;;0.40;0.40;;;;;;;4.21;100.00;100504.56;5034113;28;20499;-58
2024/02/20 05:47:43;;;;;;;0.50;0.50;;;;;;;4.18;100.00;100500.44;5033604;28;20060;-58
2024/02/20 05:50:11;;;;;;;0.40;0.40;;;;;;;4.22;100.00;100507.06;5036894;28;20063;-58
2024/02/20 05:52:38;;;;;;;0.40;0.40;;;;;;;4.14;100.00;100508.91;5030456;28;20045;-58
2024/02/20 05:55:08;;;;;;;0.50;0.50;;;;;;;4.21;100.00;100504.56;5041756;28;20055;-58
2024/02/20 05:57:35;;;;;;;0.55;0.55;;;;;;;4.27;100.00;100514.53;5035931;28;20077;-58
2024/02/20 06:00:03;;;;;;;0.47;0.47;;;;;;;4.24;100.00;100514.84;5042033;28;20128;-58
2024/02/20 06:02:31;;;;;;;0.40;0.40;;;;;;;4.13;100.00;100507.25;5037516;28;20122;-58
2024/02/20 06:04:58;;;;;;;0.50;0.50;;;;;;;4.13;100.00;100512.56;5033790;28;20154;-61
2024/02/20 06:07:25;;;;;;;0.50;0.50;;;;;;;4.07;100.00;100511.44;5032565;28;20109;-58
2024/02/20 06:09:54;;;;;;;0.60;0.60;;;;;;;4.07;100.00;100514.91;5042548;28;20069;-57
2024/02/20 06:12:22;;;;;;;0.57;0.57;;;;;;;4.08;100.00;100511.25;5039119;28;20152;-58
2024/02/20 06:14:49;;;;;;;0.52;0.52;;;;;;;4.06;100.00;100507.91;5038414;28;20042;-58
2024/02/20 06:17:16;;;;;;;0.65;0.65;;;;;;;4.04;100.00;100509.94;5032772;28;20132;-58
2024/02/20 06:19:43;;;;;;;0.50;0.50;;;;;;;4.05;100.00;100514.22;5030941;28;20109;-58
2024/02/20 06:22:10;;;;;;;0.50;0.50;;;;;;;4.03;100.00;100516.22;5031925;28;20048;-58
2024/02/20 06:24:37;;;;;;;0.50;0.50;;;;;;;4.03;100.00;100515.41;5032984;28;20609;-58
2024/02/20 06:27:07;;;;;;;0.50;0.50;;;;;;;4.04;100.00;100509.09;5037319;28;20392;-57
2024/02/20 06:29:36;;;;;;;0.60;0.60;;;;;;;4.22;100.00;100524.81;5038626;28;20056;-58
2024/02/20 06:32:04;;;;;;;0.60;0.60;;;;;;;4.17;100.00;100513.88;5027759;28;20045;-59
2024/02/20 06:34:31;;;;;;;0.50;0.50;;;;;;;4.22;100.00;100519.50;5038653;28;20045;-58
2024/02/20 06:36:58;;;;;;;0.50;0.50;;;;;;;4.17;100.00;100512.06;5035236;28;20183;-58
2024/02/20 06:39:27;;;;;;;0.52;0.52;;;;;;;4.09;100.00;100528.84;5035472;28;20059;-60
2024/02/20 06:41:54;;;;;;;0.60;0.60;;;;;;;4.18;100.00;100526.97;5034143;28;20071;-59
2024/02/20 06:44:21;;;;;;;0.57;0.57;;;;;;;4.31;100.00;100527.28;5034865;28;20122;-59
2024/02/20 06:46:50;;;;;;;0.60;0.60;;;;;;;4.30;100.00;100530.13;5026462;28;20133;-59
2024/02/20 06:49:18;;;;;;;0.50;0.50;;;;;;;4.33;100.00;100529.75;5034643;28;20037;-59
2024/02/20 06:51:45;;;;;;;0.60;0.60;;;;;;;4.32;100.00;100538.75;5039940;28;20054;-58
2024/02/20 06:54:13;;;;;;;0.50;0.50;;;;;;;4.42;100.00;100539.38;5037215;28;20692;-58
2024/02/20 06:56:40;;;;;;;0.50;0.50;;;;;;;4.46;100.00;100535.34;5030657;28;20132;-58
2024/02/20 06:59:07;;;;;;;0.50;0.50;;;;;;;4.47;100.00;100542.34;5034458;28;20041;-58
2024/02/20 07:01:34;;;;;;;0.50;0.50;;;;;;;4.50;100.00;100547.31;5038291;28;20061;-59
2024/02/20 07:04:02;;;;;;;0.52;0.52;;;;;;;4.64;100.00;100552.91;5034987;28;20080;-59
2024/02/20 07:06:33;;;;;;;0.50;0.50;;;;;;;4.69;100.00;100546.09;5036392;28;20037;-59
2024/02/20 07:09:01;;;;;;;0.50;0.50;;;;;;;4.72;100.00;100553.72;5037795;28;20133;-59
2024/02/20 07:11:30;;;;;;;0.60;0.60;;;;;;;4.80;100.00;100552.03;5037112;28;20578;-58
2024/02/20 07:13:57;;;;;;;0.50;0.50;;;;;;;4.88;100.00;100552.81;5032629;28;20508;-59
2024/02/20 07:16:27;;;;;;;0.50;0.50;;;;;;;4.96;100.00;100558.06;5038596;28;20073;-59
2024/02/20 07:18:54;;;;;;;0.40;0.40;;;;;;;5.00;100.00;100563.88;5036756;28;20040;-58
2024/02/20 07:21:23;;;;;;;0.50;0.50;;;;;;;5.13;100.00;100555.34;5033451;28;20132;-59
2024/02/20 07:23:50;;;;;;;0.50;0.50;;;;;;;5.20;100.00;100558.97;5037832;28;20037;-60
2024/02/20 07:26:17;;;;;;;0.50;0.50;;;;;;;5.30;100.00;100559.56;5035013;28;20033;-58
2024/02/20 07:28:44;;;;;;;0.40;0.40;;;;;;;5.48;100.00;100569.09;5036498;28;20057;-57
2024/02/20 07:31:11;;;;;;;0.40;0.40;;;;;;;5.41;100.00;100566.31;5037449;28;20065;-59
2024/02/20 07:33:38;;;;;;;0.50;0.50;;;;;;;5.55;100.00;100568.22;5036858;28;20137;-58
2024/02/20 07:36:06;;;;;;;0.40;0.40;;;;;;;5.49;100.00;100560.09;5033975;28;20080;-59
2024/02/20 07:38:34;;;;;;;0.47;0.47;;;;;;;5.43;100.00;100569.63;5031505;28;20419;-59
2024/02/20 07:41:03;;;;;;;0.40;0.40;;;;;;;5.47;100.00;100567.47;5033868;28;20041;-59
2024/02/20 07:43:30;;;;;;;0.40;0.40;;;;;;;5.51;100.00;100560.75;5038141;28;20164;-59
2024/02/20 07:45:57;;;;;;;0.50;0.50;;;;;;;5.41;100.00;100567.13;5031849;28;20053;-59
2024/02/20 07:48:24;;;;;;;0.40;0.40;;;;;;;5.39;100.00;100563.84;5025956;28;20114;-59
2024/02/20 07:50:52;;;;;;;0.40;0.40;;;;;;;5.43;100.00;100568.81;5028664;28;20156;-57
2024/02/20 07:53:19;;;;;;;0.43;0.43;;;;;;;5.23;100.00;100571.91;5030523;28;20055;-59
2024/02/20 07:55:48;;;;;;;0.47;0.47;;;;;;;5.42;100.00;100573.31;5036045;28;20092;-59
2024/02/20 07:58:15;;;;;;;0.50;0.50;;;;;;;5.44;100.00;100565.13;5038088;28;20049;-59
2024/02/20 08:00:42;;;;;;;0.50;0.50;;;;;;;5.65;100.00;100569.81;5038466;28;20041;-60
2024/02/20 08:03:12;;;;;;;0.40;0.40;;;;;;;5.65;100.00;100575.97;5032318;28;20045;-59
2024/02/20 08:05:41;;;;;;;0.40;0.40;;;;;;;5.94;100.00;100577.09;5033805;28;20602;-60
2024/02/20 08:08:08;;;;;;;0.40;0.40;;;;;;;5.78;100.00;100584.16;5028669;28;20056;-59
2024/02/20 08:10:35;;;;;;;0.57;0.57;;;;;;;5.12;100.00;100582.94;5040646;28;20693;-59
2024/02/20 08:13:04;;;;;;;0.50;0.50;;;;;;;5.33;100.00;100585.81;5035386;28;20559;-58
2024/02/20 08:15:31;;;;;;;0.50;0.50;;;;;;;5.48;100.00;100585.06;5028188;28;20098;-59
2024/02/20 08:17:58;;;;;;;0.60;0.60;;;;;;;5.57;100.00;100594.66;5032168;28;20053;-59
2024/02/20 08:20:26;;;;;;;0.50;0.50;;;;;;;5.64;100.00;100592.91;5037025;28;20063;-59
2024/02/20 08:22:53;;;;;;;0.40;0.40;;;;;;;5.88;100.00;100593.75;5033693;28;20132;-60
2024/02/20 08:25:20;;;;;;;0.50;0.50;;;;;;;5.57;100.00;100599.97;5037190;28;20048;-60
2024/02/20 08:27:47;;;;;;;0.57;0.57;;;;;;;5.53;100.00;100603.97;5031421;28;20795;-58
2024/02/20 08:30:17;;;;;;;0.50;0.50;;;;;;;5.63;100.00;100596.59;5028564;28;20045;-57
2024/02/20 08:32:44;;;;;;;0.50;0.50;;;;;;;5.76;100.00;100596.00;5033378;28;20076;-59
2024/02/20 08:35:11;;;;;;;0.43;0.43;;;;;;;5.50;100.00;100594.50;5036468;28;20487;-59
2024/02/20 08:37:39;;;;;;;0.60;0.60;;;;;;;5.66;100.00;100601.53;5031124;28;20041;-59
2024/02/20 08:40:08;;;;;;;0.57;0.57;;;;;;;5.88;100.00;100599.06;5027955;28;20087;-59
2024/02/20 08:42:36;;;;;;;0.50;0.50;;;;;;;5.96;100.00;100594.53;5032086;28;20053;-59
2024/02/20 08:45:07;;;;;;;0.50;0.50;;;;;;;6.24;100.00;100601.94;5029848;28;20053;-59
2024/02/20 08:47:36;;;;;;;0.43;0.43;;;;;;;5.87;100.00;100597.44;5028822;28;20053;-60
2024/02/20 08:50:03;;;;;;;0.50;0.50;;;;;;;6.01;100.00;100599.31;5032784;28;20045;-59
2024/02/20 08:52:33;;;;;;;0.40;0.40;;;;;;;5.97;100.00;100603.38;5031864;28;20053;-58
2024/02/20 08:55:00;;;;;;;0.40;0.40;;;;;;;5.62;100.00;100605.59;5024830;28;20105;-59
2024/02/20 08:57:27;;;;;;;0.60;0.60;;;;;;;5.95;100.00;100610.69;5026057;28;20926;-60
2024/02/20 08:59:54;;;;;;;0.50;0.50;;;;;;;5.67;100.00;100599.75;5033622;28;20045;-59
2024/02/20 09:02:22;;;;;;;0.50;0.50;;;;;;;5.39;100.00;100606.38;5031053;28;20049;-58
2024/02/20 09:04:52;;;;;;;0.50;0.50;;;;;;;5.48;100.00;100606.34;5028365;28;20049;-58
2024/02/20 09:07:21;;;;;;;0.50;0.50;;;;;;;5.52;100.00;100605.00;5032107;28;20041;-60
2024/02/20 09:09:51;;;;;;;0.52;0.52;;;;;;;5.58;100.00;100605.09;5030249;28;20069;-59
2024/02/20 09:12:19;;;;;;;0.50;0.50;;;;;;;5.77;100.00;100621.63;5021518;28;20068;-59
2024/02/20 09:14:46;;;;;;;0.50;0.50;;;;;;;5.99;100.00;100612.84;5038036;28;20055;-59
2024/02/20 09:17:13;;;;;;;0.50;0.50;;;;;;;5.97;100.00;100616.69;5027174;28;20129;-57
2024/02/20 09:19:41;;;;;;;0.40;0.40;;;;;;;6.15;100.00;100622.50;5027418;28;20045;-59
2024/02/20 09:22:10;;;;;;;0.50;0.50;;;;;;;6.10;100.00;100618.72;5026297;28;20065;-60
2024/02/20 09:24:38;;;;;;;0.50;0.50;;;;;;;6.06;100.00;100623.56;5030880;28;20056;-59
2024/02/20 09:27:06;;;;;;;0.30;0.30;;;;;;;6.07;100.00;100627.91;5018680;28;20752;-59
2024/02/20 09:29:32;;;;;;;0.47;0.47;;;;;;;6.28;100.00;100631.72;5034698;28;20122;-59
2024/02/20 09:32:00;;;;;;;0.50;0.50;;;;;;;6.15;100.00;100625.16;5035738;28;20041;-60
2024/02/20 09:34:29;;;;;;;0.40;0.40;;;;;;;6.43;100.00;100619.25;5036521;28;20071;-60
2024/02/20 09:36:56;;;;;;;0.50;0.50;;;;;;;6.09;100.00;100617.91;5021461;28;20053;-59
2024/02/20 09:39:25;;;;;;;0.40;0.40;;;;;;;6.76;100.00;100624.25;5036237;28;20045;-59
2024/02/20 09:41:52;;;;;;;0.52;0.52;;;;;;;7.22;100.00;100616.06;5034589;28;20671;-59
2024/02/20 09:44:20;;;;;;;0.40;0.40;;;;;;;7.46;100.00;100623.72;5025444;28;20700;-58
2024/02/20 09:46:48;;;;;;;0.40;0.40;;;;;;;7.27;100.00;100622.47;5023485;28;20049;-59
2024/02/20 09:49:16;;;;;;;0.40;0.40;;;;;;;7.82;100.00;100617.53;5028627;28;20054;-59
2024/02/20 09:51:43;;;;;;;0.45;0.45;;;;;;;7.20;100.00;100631.41;5029270;28;20046;-58
2024/02/20 09:54:11;;;;;;;0.25;0.25;;;;;;;7.50;100.00;100625.00;5034570;28;20080;-58
2024/02/20 09:56:40;;;;;;;0.40;0.40;;;;;;;7.17;100.00;100623.78;5032634;28;20049;-60
2024/02/20 09:59:08;;;;;;;0.40;0.40;;;;;;;7.71;100.00;100626.03;5029272;28;20053;-60
2024/02/20 10:01:37;;;;;;;0.40;0.40;;;;;;;7.27;100.00;100629.66;5031312;28;20284;-60
2024/02/20 10:04:07;;;;;;;0.30;0.30;;;;;;;7.51;100.00;100628.47;5023928;28;20580;-59
2024/02/20 10:06:34;;;;;;;0.30;0.30;;;;;;;7.82;100.00;100630.06;5030639;28;20052;-59
2024/02/20 10:09:02;;;;;;;0.30;0.30;;;;;;;7.13;100.00;100626.81;5032208;28;20041;-58
2024/02/20 10:11:29;;;;;;;0.40;0.40;;;;;;;7.58;100.00;100640.06;5031300;28;20041;-59
2024/02/20 10:13:57;;;;;;;0.40;0.40;;;;;;;7.59;100.00;100624.88;5030232;28;20484;-59
2024/02/20 10:16:25;;;;;;;0.30;0.30;;;;;;;7.90;100.00;100628.06;5031547;28;20511;-60
2024/02/20 10:18:58;;;;;;;0.32;0.32;;;;;;;7.82;100.00;100622.06;5024669;28;20036;-58
2024/02/20 10:21:25;;;;;;;0.40;0.40;;;;;;;8.08;100.00;100624.13;5039759;28;20052;-58
2024/02/20 10:24:03;;;;;;;0.40;0.40;;;;;;;8.16;100.00;100627.50;5039666;28;20046;-58
2024/02/20 10:26:34;;;;;;;0.30;0.30;;;;;;;7.78;100.00;100621.59;5038621;28;20055;-58
2024/02/20 10:29:02;;;;;;;0.40;0.40;;;;;;;7.80;100.00;100622.22;5041544;28;20048;-59
2024/02/20 10:31:30;;;;;;;0.38;0.38;;;;;;;8.06;100.00;100623.50;5037179;28;20037;-58
2024/02/20 10:33:57;;;;;;;0.40;0.40;;;;;;;7.69;100.00;100620.91;5033783;28;20048;-58
2024/02/20 10:36:24;;;;;;;0.35;0.35;;;;;;;8.00;100.00;100617.91;5029418;28;20065;-58
2024/02/20 10:38:51;;;;;;;0.30;0.30;;;;;;;8.53;100.00;100608.69;5028339;28;20061;-59
2024/02/20 10:41:19;;;;;;;0.30;0.30;;;;;;;8.72;100.00;100616.00;5036663;28;20053;-58
2024/02/20 10:43:47;;;;;;;0.30;0.30;;;;;;;8.98;100.00;100609.97;5029212;28;20411;-59
2024/02/20 10:46:15;;;;;;;0.35;0.35;;;;;;;8.45;100.00;100612.34;5032607;28;20498;-59
2024/02/20 10:48:44;;;;;;;0.35;0.35;;;;;;;8.66;100.00;100622.13;5029283;28;20742;-58
2024/02/20 10:51:11;;;;;;;0.30;0.30;;;;;;;8.69;100.00;100621.75;5033467;28;20048;-60
2024/02/20 10:53:38;;;;;;;0.30;0.30;;;;;;;8.78;100.00;100615.22;5033055;28;20571;-60
2024/02/20 10:56:06;;;;;;;0.30;0.30;;;;;;;8.98;100.00;100614.50;5039159;28;20037;-58
2024/02/20 10:58:35;;;;;;;0.20;0.20;;;;;;;9.03;100.00;100612.06;5030615;28;20195;-57
2024/02/20 11:01:02;;;;;;;0.30;0.30;;;;;;;8.86;100.00;100606.22;5030707;28;20084;-60
2024/02/20 11:03:30;;;;;;;0.30;0.30;;;;;;;8.90;100.00;100601.31;5031285;28;20130;-60
2024/02/20 11:05:57;;;;;;;0.43;0.43;;;;;;;8.55;100.00;100593.28;5031807;28;20061;-59
2024/02/20 11:08:28;;;;;;;0.30;0.30;;;;;;;8.77;100.00;100589.53;5027573;28;20073;-58
2024/02/20 11:10:55;;;;;;;0.28;0.28;;;;;;;9.20;100.00;100581.28;5032010;28;20061;-58
2024/02/20 11:13:24;;;;;;;0.30;0.30;;;;;;;8.82;100.00;100584.41;5037095;28;20041;-58
2024/02/20 11:15:52;;;;;;;0.32;0.32;;;;;;;8.82;100.00;100578.25;5030159;28;20053;-58
2024/02/20 11:18:20;;;;;;;0.30;0.30;;;;;;;8.75;100.00;100578.19;5021161;28;20041;-58
2024/02/20 11:20:59;;;;;;;0.40;0.40;;;;;;;8.48;100.00;100574.53;5039667;28;20043;-58
2024/02/20 11:23:29;;;;;;;0.20;0.20;;;;;;;8.76;100.00;100577.19;5027599;28;20055;-58
2024/02/20 11:26:08;;;;;;;0.50;0.50;;;;;;;8.66;100.00;100568.66;5030515;28;20522;-59